Silver Cliff, CO

7:52 AM MDT on September 23, 2014 (GMT -0600)
Courtyard Country Inn | Change Station
CLOSE
Current Station
Personal Weather Station
Location: Westcliffe, CO
Elevation: 7848 ft
Nearby Weather Stations

Elev 7848 ft 38.14 °N, 105.47 °W | Updated 4 seconds ago

Partly Cloudy
Partly Cloudy
48.7 °F
Feels Like 49 °F
N
0.0
Wind Variable Wind from NW
Gusts 0.0 mph

Today
High -- | Low -- °F
--% Chance of Precip.
Yesterday
High -- | Low -- °F
Precip. -- in
6:50 AM 6:57 PM
Waning Crescent, 0% visible
Pressure 30.37 in
Visibility 10.0 miles
Clouds Clear
Windchill 49 °F
Dew Point 43 °F
Humidity 81%
Rainfall 0.00 in
Snow Depth 0 in , 0 in , 0 in
UV 0 out of 12
Pollen 5.40 out of 12
Air Quality Not available.
Flu Activity Not available.
METAR K04V 231333Z AUTO 31004KT 10SM CLR 06/05 A3037 RMK AO2

More Conditions Fewer Conditions

Pressure 30.37 in
Visibility 10.0 miles
Clouds Clear
Windchill 49 °F
Dew Point 43 °F
Humidity 81%
Rainfall 0.00 in
Snow Depth 0 in , 0 in , 0 in
UV 0 out of 12
Pollen 5.40 out of 12
Air Quality Not available.
Flu Activity Not available.
METAR K04V 231333Z AUTO 31004KT 10SM CLR 06/05 A3037 RMK AO2

More Conditions Fewer Conditions

10-Day Weather Forecast

Almanac

Astronomy

Sep. 23, 2014 Rise Set
Actual Time 6:50 AM MDT 6:57 PM MDT
Civil Twilight 6:24 AM MDT 7:23 PM MDT
Nautical Twilight 5:53 AM MDT 7:54 PM MDT
Astronomical Twilight 5:22 AM MDT 8:25 PM MDT
Moon 6:17 AM MDT 6:37 PM MDT
Length of Visible Light 12h 59m
Length of Day
12h 06m
Tomorrow will be 2m 26s shorter.
Waning Crescent, 0% of the Moon is Illuminated
Today
Waning Crescent
Sep 24
New
Oct 1
First Quarter
Oct 8
Full
Oct 15
Last Quarter

Today's Extremes

State Highs State Lows

Community

WunderPhotos

Upload Photos

1,755,669 photos uploaded!

WunderBlogs® & News

Nearby

Snow Depth

Station Depth Elevation
Cochetopa Pass 0 in 10020 ft
Butte 0 in 10160 ft
Buckskin Joe 0 in 11150 ft
Molas Lake 0 in 10500 ft
Sharkstooth 0 in 10720 ft

Earthquake Activity

City Distance Mag. Time & Date
No recent earthquake activity has been reported nearby.
Minimum magnitude displayed is 2.5.

Coastal Water Temperatures

Place Temperature
No Stations Reporting

Nearby Weather Stations